sensor_id;sensor_type;location;lat;lon;timestamp;P1;durP1;ratioP1;P2;durP2;ratioP2
77880;SDS011;67077;50.298;18.996;2023-08-06T00:01:52;50.40;;;23.50;;
77880;SDS011;67077;50.298;18.996;2023-08-06T00:04:19;43.80;;;22.60;;
77880;SDS011;67077;50.298;18.996;2023-08-06T00:06:45;50.00;;;23.60;;
77880;SDS011;67077;50.298;18.996;2023-08-06T00:09:12;46.40;;;23.40;;
77880;SDS011;67077;50.298;18.996;2023-08-06T00:11:39;43.50;;;22.50;;
77880;SDS011;67077;50.298;18.996;2023-08-06T00:14:07;52.50;;;23.70;;
77880;SDS011;67077;50.298;18.996;2023-08-06T00:16:34;43.60;;;23.00;;
77880;SDS011;67077;50.298;18.996;2023-08-06T00:19:00;48.10;;;23.70;;
77880;SDS011;67077;50.298;18.996;2023-08-06T00:21:27;43.90;;;21.90;;
77880;SDS011;67077;50.298;18.996;2023-08-06T00:23:56;48.20;;;23.20;;
77880;SDS011;67077;50.298;18.996;2023-08-06T00:26:24;49.70;;;22.20;;
77880;SDS011;67077;50.298;18.996;2023-08-06T00:28:50;38.50;;;20.30;;
77880;SDS011;67077;50.298;18.996;2023-08-06T00:31:17;37.60;;;19.20;;
77880;SDS011;67077;50.298;18.996;2023-08-06T00:33:44;38.00;;;19.50;;
77880;SDS011;67077;50.298;18.996;2023-08-06T00:36:11;40.00;;;21.70;;
77880;SDS011;67077;50.298;18.996;2023-08-06T00:38:37;39.50;;;19.70;;
77880;SDS011;67077;50.298;18.996;2023-08-06T00:41:04;39.10;;;17.90;;
77880;SDS011;67077;50.298;18.996;2023-08-06T00:43:30;31.10;;;17.10;;
77880;SDS011;67077;50.298;18.996;2023-08-06T00:45:57;27.80;;;15.30;;
77880;SDS011;67077;50.298;18.996;2023-08-06T00:48:23;41.50;;;18.20;;
77880;SDS011;67077;50.298;18.996;2023-08-06T00:50:50;32.60;;;17.40;;
77880;SDS011;67077;50.298;18.996;2023-08-06T00:53:17;35.50;;;16.00;;
77880;SDS011;67077;50.298;18.996;2023-08-06T00:55:44;30.30;;;15.60;;
77880;SDS011;67077;50.298;18.996;2023-08-06T00:58:12;31.80;;;14.80;;
77880;SDS011;67077;50.298;18.996;2023-08-06T01:00:41;34.20;;;16.60;;
77880;SDS011;67077;50.298;18.996;2023-08-06T01:03:08;31.00;;;15.50;;
77880;SDS011;67077;50.298;18.996;2023-08-06T01:05:35;52.80;;;16.00;;
77880;SDS011;67077;50.298;18.996;2023-08-06T01:10:52;37.30;;;14.70;;
77880;SDS011;67077;50.298;18.996;2023-08-06T01:13:48;41.50;;;15.20;;
77880;SDS011;67077;50.298;18.996;2023-08-06T01:16:18;38.40;;;13.60;;
77880;SDS011;67077;50.298;18.996;2023-08-06T01:18:47;35.90;;;14.90;;
77880;SDS011;67077;50.298;18.996;2023-08-06T01:21:16;35.80;;;15.40;;
77880;SDS011;67077;50.298;18.996;2023-08-06T01:23:43;56.20;;;15.60;;
77880;SDS011;67077;50.298;18.996;2023-08-06T01:31:31;29.90;;;14.30;;
77880;SDS011;67077;50.298;18.996;2023-08-06T01:34:01;27.40;;;15.00;;
77880;SDS011;67077;50.298;18.996;2023-08-06T01:36:31;41.00;;;14.90;;
77880;SDS011;67077;50.298;18.996;2023-08-06T01:38:58;25.40;;;14.00;;
77880;SDS011;67077;50.298;18.996;2023-08-06T01:41:25;33.00;;;15.20;;
77880;SDS011;67077;50.298;18.996;2023-08-06T01:43:52;34.50;;;15.10;;
77880;SDS011;67077;50.298;18.996;2023-08-06T01:46:18;24.40;;;14.70;;
77880;SDS011;67077;50.298;18.996;2023-08-06T01:48:45;23.50;;;14.40;;
77880;SDS011;67077;50.298;18.996;2023-08-06T01:51:11;19.90;;;13.00;;
77880;SDS011;67077;50.298;18.996;2023-08-06T01:53:38;21.00;;;14.10;;
77880;SDS011;67077;50.298;18.996;2023-08-06T01:56:04;17.90;;;12.50;;
77880;SDS011;67077;50.298;18.996;2023-08-06T01:58:31;17.70;;;12.50;;
77880;SDS011;67077;50.298;18.996;2023-08-06T02:00:58;18.20;;;13.20;;
77880;SDS011;67077;50.298;18.996;2023-08-06T02:03:24;16.80;;;12.50;;
77880;SDS011;67077;50.298;18.996;2023-08-06T02:05:51;17.90;;;12.90;;
77880;SDS011;67077;50.298;18.996;2023-08-06T02:08:17;14.40;;;11.30;;
77880;SDS011;67077;50.298;18.996;2023-08-06T02:10:44;17.00;;;11.60;;
77880;SDS011;67077;50.298;18.996;2023-08-06T02:13:11;17.90;;;12.10;;
77880;SDS011;67077;50.298;18.996;2023-08-06T02:15:44;17.20;;;12.50;;
77880;SDS011;67077;50.298;18.996;2023-08-06T02:18:15;17.40;;;12.40;;
77880;SDS011;67077;50.298;18.996;2023-08-06T02:20:42;15.60;;;12.30;;
77880;SDS011;67077;50.298;18.996;2023-08-06T02:23:09;14.30;;;11.60;;
77880;SDS011;67077;50.298;18.996;2023-08-06T02:25:36;16.50;;;11.70;;
77880;SDS011;67077;50.298;18.996;2023-08-06T02:28:02;14.00;;;11.40;;
77880;SDS011;67077;50.298;18.996;2023-08-06T02:30:29;15.20;;;11.20;;
77880;SDS011;67077;50.298;18.996;2023-08-06T02:32:56;12.70;;;10.40;;
77880;SDS011;67077;50.298;18.996;2023-08-06T02:35:23;14.10;;;10.70;;
77880;SDS011;67077;50.298;18.996;2023-08-06T02:37:50;13.60;;;10.30;;
77880;SDS011;67077;50.298;18.996;2023-08-06T02:40:16;14.80;;;10.50;;
77880;SDS011;67077;50.298;18.996;2023-08-06T02:42:43;15.50;;;10.70;;
77880;SDS011;67077;50.298;18.996;2023-08-06T02:45:09;13.10;;;10.20;;
77880;SDS011;67077;50.298;18.996;2023-08-06T02:47:36;14.40;;;11.40;;
77880;SDS011;67077;50.298;18.996;2023-08-06T02:50:03;12.90;;;10.20;;
77880;SDS011;67077;50.298;18.996;2023-08-06T02:52:30;13.40;;;10.30;;
77880;SDS011;67077;50.298;18.996;2023-08-06T02:54:56;12.50;;;10.30;;
77880;SDS011;67077;50.298;18.996;2023-08-06T02:57:26;13.80;;;10.70;;
77880;SDS011;67077;50.298;18.996;2023-08-06T02:59:52;14.20;;;11.00;;
77880;SDS011;67077;50.298;18.996;2023-08-06T03:02:19;12.80;;;10.20;;
77880;SDS011;67077;50.298;18.996;2023-08-06T03:04:45;13.50;;;10.00;;
77880;SDS011;67077;50.298;18.996;2023-08-06T03:07:12;13.60;;;10.70;;
77880;SDS011;67077;50.298;18.996;2023-08-06T03:09:38;15.30;;;11.70;;
77880;SDS011;67077;50.298;18.996;2023-08-06T03:12:05;13.60;;;11.50;;
77880;SDS011;67077;50.298;18.996;2023-08-06T03:14:32;15.40;;;12.00;;
77880;SDS011;67077;50.298;18.996;2023-08-06T03:16:59;14.90;;;11.30;;
77880;SDS011;67077;50.298;18.996;2023-08-06T03:19:25;16.00;;;12.10;;
77880;SDS011;67077;50.298;18.996;2023-08-06T03:21:52;16.30;;;11.80;;
77880;SDS011;67077;50.298;18.996;2023-08-06T03:24:19;18.00;;;13.00;;
77880;SDS011;67077;50.298;18.996;2023-08-06T03:26:45;22.80;;;14.80;;
77880;SDS011;67077;50.298;18.996;2023-08-06T03:29:12;20.40;;;14.10;;
77880;SDS011;67077;50.298;18.996;2023-08-06T03:31:38;22.60;;;15.30;;
77880;SDS011;67077;50.298;18.996;2023-08-06T03:34:05;23.10;;;16.10;;
77880;SDS011;67077;50.298;18.996;2023-08-06T03:36:32;28.40;;;18.30;;
77880;SDS011;67077;50.298;18.996;2023-08-06T03:38:59;26.40;;;18.40;;
77880;SDS011;67077;50.298;18.996;2023-08-06T03:41:25;26.60;;;17.80;;
77880;SDS011;67077;50.298;18.996;2023-08-06T03:43:52;28.10;;;18.90;;
77880;SDS011;67077;50.298;18.996;2023-08-06T03:46:18;34.50;;;19.90;;
77880;SDS011;67077;50.298;18.996;2023-08-06T03:48:45;29.60;;;18.50;;
77880;SDS011;67077;50.298;18.996;2023-08-06T03:51:12;32.40;;;19.60;;
77880;SDS011;67077;50.298;18.996;2023-08-06T03:53:39;30.80;;;18.90;;
77880;SDS011;67077;50.298;18.996;2023-08-06T03:56:05;33.00;;;20.10;;
77880;SDS011;67077;50.298;18.996;2023-08-06T03:58:32;30.90;;;19.40;;
77880;SDS011;67077;50.298;18.996;2023-08-06T04:00:59;33.00;;;20.40;;
77880;SDS011;67077;50.298;18.996;2023-08-06T04:03:29;34.20;;;20.30;;
77880;SDS011;67077;50.298;18.996;2023-08-06T04:05:56;34.30;;;20.70;;
77880;SDS011;67077;50.298;18.996;2023-08-06T04:08:22;32.70;;;20.20;;
77880;SDS011;67077;50.298;18.996;2023-08-06T04:10:49;34.60;;;21.80;;
77880;SDS011;67077;50.298;18.996;2023-08-06T04:13:17;41.50;;;23.10;;
77880;SDS011;67077;50.298;18.996;2023-08-06T04:15:44;39.50;;;23.20;;
77880;SDS011;67077;50.298;18.996;2023-08-06T04:18:11;40.10;;;23.40;;
77880;SDS011;67077;50.298;18.996;2023-08-06T04:20:44;39.20;;;23.20;;
77880;SDS011;67077;50.298;18.996;2023-08-06T04:23:12;38.70;;;22.50;;
77880;SDS011;67077;50.298;18.996;2023-08-06T04:25:39;40.10;;;22.60;;
77880;SDS011;67077;50.298;18.996;2023-08-06T04:28:06;39.40;;;22.40;;
77880;SDS011;67077;50.298;18.996;2023-08-06T04:30:33;37.40;;;22.20;;
77880;SDS011;67077;50.298;18.996;2023-08-06T04:33:00;40.00;;;22.40;;
77880;SDS011;67077;50.298;18.996;2023-08-06T04:35:27;41.90;;;22.70;;
77880;SDS011;67077;50.298;18.996;2023-08-06T04:37:54;41.20;;;22.20;;
77880;SDS011;67077;50.298;18.996;2023-08-06T04:40:20;38.20;;;22.40;;
77880;SDS011;67077;50.298;18.996;2023-08-06T04:42:47;39.70;;;23.60;;
77880;SDS011;67077;50.298;18.996;2023-08-06T04:45:13;41.10;;;23.80;;
77880;SDS011;67077;50.298;18.996;2023-08-06T04:47:40;40.20;;;23.20;;
77880;SDS011;67077;50.298;18.996;2023-08-06T04:50:07;42.90;;;24.70;;
77880;SDS011;67077;50.298;18.996;2023-08-06T04:52:33;37.60;;;22.60;;
77880;SDS011;67077;50.298;18.996;2023-08-06T04:55:00;38.80;;;23.00;;
77880;SDS011;67077;50.298;18.996;2023-08-06T04:57:26;36.90;;;22.10;;
77880;SDS011;67077;50.298;18.996;2023-08-06T04:59:53;40.40;;;22.30;;
77880;SDS011;67077;50.298;18.996;2023-08-06T05:02:20;39.60;;;22.40;;
77880;SDS011;67077;50.298;18.996;2023-08-06T05:04:46;43.00;;;22.70;;
77880;SDS011;67077;50.298;18.996;2023-08-06T05:07:13;42.10;;;23.20;;
77880;SDS011;67077;50.298;18.996;2023-08-06T05:09:39;44.00;;;23.10;;
77880;SDS011;67077;50.298;18.996;2023-08-06T05:12:06;46.40;;;23.20;;
77880;SDS011;67077;50.298;18.996;2023-08-06T05:14:33;46.10;;;24.20;;
77880;SDS011;67077;50.298;18.996;2023-08-06T05:16:59;59.90;;;23.90;;
77880;SDS011;67077;50.298;18.996;2023-08-06T05:19:28;68.00;;;24.30;;
77880;SDS011;67077;50.298;18.996;2023-08-06T05:21:55;59.00;;;24.30;;
77880;SDS011;67077;50.298;18.996;2023-08-06T05:24:22;52.80;;;24.10;;
77880;SDS011;67077;50.298;18.996;2023-08-06T05:26:48;75.30;;;24.80;;
77880;SDS011;67077;50.298;18.996;2023-08-06T05:29:16;68.20;;;25.30;;
77880;SDS011;67077;50.298;18.996;2023-08-06T05:31:43;53.90;;;24.00;;
77880;SDS011;67077;50.298;18.996;2023-08-06T05:34:09;57.90;;;24.80;;
77880;SDS011;67077;50.298;18.996;2023-08-06T05:36:36;61.20;;;22.00;;
77880;SDS011;67077;50.298;18.996;2023-08-06T05:39:03;52.50;;;21.00;;
77880;SDS011;67077;50.298;18.996;2023-08-06T05:41:30;48.20;;;22.80;;
77880;SDS011;67077;50.298;18.996;2023-08-06T05:43:56;53.10;;;20.00;;
77880;SDS011;67077;50.298;18.996;2023-08-06T05:46:23;53.40;;;19.90;;
77880;SDS011;67077;50.298;18.996;2023-08-06T05:48:50;37.20;;;17.50;;
77880;SDS011;67077;50.298;18.996;2023-08-06T05:51:18;29.20;;;15.90;;
77880;SDS011;67077;50.298;18.996;2023-08-06T05:53:46;14.60;;;8.30;;
77880;SDS011;67077;50.298;18.996;2023-08-06T05:56:15;10.40;;;5.50;;
77880;SDS011;67077;50.298;18.996;2023-08-06T05:58:42;8.60;;;4.70;;
77880;SDS011;67077;50.298;18.996;2023-08-06T06:01:08;4.80;;;2.90;;
77880;SDS011;67077;50.298;18.996;2023-08-06T06:03:35;2.60;;;2.40;;
77880;SDS011;67077;50.298;18.996;2023-08-06T06:06:01;2.20;;;1.50;;
77880;SDS011;67077;50.298;18.996;2023-08-06T06:08:28;1.40;;;1.20;;
77880;SDS011;67077;50.298;18.996;2023-08-06T06:10:55;0.90;;;0.80;;
77880;SDS011;67077;50.298;18.996;2023-08-06T06:13:22;2.00;;;1.00;;
77880;SDS011;67077;50.298;18.996;2023-08-06T06:15:48;1.50;;;1.00;;
77880;SDS011;67077;50.298;18.996;2023-08-06T06:18:15;1.40;;;1.30;;
77880;SDS011;67077;50.298;18.996;2023-08-06T06:20:41;1.90;;;1.30;;
77880;SDS011;67077;50.298;18.996;2023-08-06T06:23:08;2.10;;;1.10;;
77880;SDS011;67077;50.298;18.996;2023-08-06T06:25:35;1.50;;;1.20;;
77880;SDS011;67077;50.298;18.996;2023-08-06T06:28:02;2.40;;;1.30;;
77880;SDS011;67077;50.298;18.996;2023-08-06T06:30:28;3.20;;;1.50;;
77880;SDS011;67077;50.298;18.996;2023-08-06T06:32:55;2.10;;;1.70;;
77880;SDS011;67077;50.298;18.996;2023-08-06T06:35:22;1.90;;;1.70;;
77880;SDS011;67077;50.298;18.996;2023-08-06T06:37:49;4.10;;;2.00;;
77880;SDS011;67077;50.298;18.996;2023-08-06T06:40:15;1.50;;;1.40;;
77880;SDS011;67077;50.298;18.996;2023-08-06T06:42:43;3.10;;;1.50;;
77880;SDS011;67077;50.298;18.996;2023-08-06T06:45:09;1.10;;;0.80;;
77880;SDS011;67077;50.298;18.996;2023-08-06T06:47:36;2.60;;;1.10;;
77880;SDS011;67077;50.298;18.996;2023-08-06T06:50:03;1.10;;;0.80;;
77880;SDS011;67077;50.298;18.996;2023-08-06T06:52:30;2.00;;;0.70;;
77880;SDS011;67077;50.298;18.996;2023-08-06T06:54:57;1.40;;;0.70;;
77880;SDS011;67077;50.298;18.996;2023-08-06T06:57:23;3.40;;;0.70;;
77880;SDS011;67077;50.298;18.996;2023-08-06T06:59:50;2.60;;;0.80;;
77880;SDS011;67077;50.298;18.996;2023-08-06T07:02:16;2.20;;;0.70;;
77880;SDS011;67077;50.298;18.996;2023-08-06T07:04:43;1.80;;;0.50;;
77880;SDS011;67077;50.298;18.996;2023-08-06T07:07:09;1.40;;;0.50;;
77880;SDS011;67077;50.298;18.996;2023-08-06T07:09:36;0.90;;;0.50;;
77880;SDS011;67077;50.298;18.996;2023-08-06T07:12:03;1.80;;;0.50;;
77880;SDS011;67077;50.298;18.996;2023-08-06T07:14:30;0.60;;;0.40;;
77880;SDS011;67077;50.298;18.996;2023-08-06T07:16:56;1.20;;;0.50;;
77880;SDS011;67077;50.298;18.996;2023-08-06T07:19:23;2.30;;;0.60;;
77880;SDS011;67077;50.298;18.996;2023-08-06T07:21:50;0.40;;;0.40;;
77880;SDS011;67077;50.298;18.996;2023-08-06T07:24:16;2.10;;;0.50;;
77880;SDS011;67077;50.298;18.996;2023-08-06T07:26:43;1.40;;;0.80;;
77880;SDS011;67077;50.298;18.996;2023-08-06T07:29:10;1.30;;;0.50;;
77880;SDS011;67077;50.298;18.996;2023-08-06T07:31:36;1.20;;;0.80;;
77880;SDS011;67077;50.298;18.996;2023-08-06T07:34:03;1.30;;;0.80;;
77880;SDS011;67077;50.298;18.996;2023-08-06T07:36:29;2.00;;;0.50;;
77880;SDS011;67077;50.298;18.996;2023-08-06T07:38:57;2.00;;;0.80;;
77880;SDS011;67077;50.298;18.996;2023-08-06T07:41:23;1.50;;;0.50;;
77880;SDS011;67077;50.298;18.996;2023-08-06T07:43:50;1.50;;;0.40;;
77880;SDS011;67077;50.298;18.996;2023-08-06T07:46:17;0.80;;;0.50;;
77880;SDS011;67077;50.298;18.996;2023-08-06T07:48:43;3.70;;;1.30;;
77880;SDS011;67077;50.298;18.996;2023-08-06T07:51:10;1.60;;;0.40;;
77880;SDS011;67077;50.298;18.996;2023-08-06T07:53:36;0.40;;;0.20;;
77880;SDS011;67077;50.298;18.996;2023-08-06T07:56:03;0.80;;;0.30;;
77880;SDS011;67077;50.298;18.996;2023-08-06T07:58:30;2.60;;;0.90;;
77880;SDS011;67077;50.298;18.996;2023-08-06T08:00:58;0.60;;;0.40;;
77880;SDS011;67077;50.298;18.996;2023-08-06T08:03:25;1.80;;;0.30;;
77880;SDS011;67077;50.298;18.996;2023-08-06T08:05:54;5.80;;;0.40;;
77880;SDS011;67077;50.298;18.996;2023-08-06T08:08:24;0.70;;;0.30;;
77880;SDS011;67077;50.298;18.996;2023-08-06T08:10:51;0.50;;;0.40;;
77880;SDS011;67077;50.298;18.996;2023-08-06T08:13:18;0.60;;;0.40;;
77880;SDS011;67077;50.298;18.996;2023-08-06T08:15:44;1.70;;;1.00;;
77880;SDS011;67077;50.298;18.996;2023-08-06T08:18:11;2.90;;;1.70;;
77880;SDS011;67077;50.298;18.996;2023-08-06T08:20:38;1.40;;;1.00;;
77880;SDS011;67077;50.298;18.996;2023-08-06T08:23:05;2.20;;;0.80;;
77880;SDS011;67077;50.298;18.996;2023-08-06T08:25:33;2.80;;;1.40;;
77880;SDS011;67077;50.298;18.996;2023-08-06T08:28:01;1.70;;;1.60;;
77880;SDS011;67077;50.298;18.996;2023-08-06T08:30:28;1.20;;;1.10;;
77880;SDS011;67077;50.298;18.996;2023-08-06T08:32:55;2.90;;;1.20;;
77880;SDS011;67077;50.298;18.996;2023-08-06T08:35:23;2.10;;;1.60;;
77880;SDS011;67077;50.298;18.996;2023-08-06T08:37:50;3.60;;;2.50;;
77880;SDS011;67077;50.298;18.996;2023-08-06T08:40:17;2.80;;;2.00;;
77880;SDS011;67077;50.298;18.996;2023-08-06T08:42:44;2.90;;;2.10;;
77880;SDS011;67077;50.298;18.996;2023-08-06T08:45:12;3.60;;;1.80;;
77880;SDS011;67077;50.298;18.996;2023-08-06T08:47:41;2.20;;;2.00;;
77880;SDS011;67077;50.298;18.996;2023-08-06T08:50:09;3.20;;;2.50;;
77880;SDS011;67077;50.298;18.996;2023-08-06T08:52:41;5.20;;;4.30;;
77880;SDS011;67077;50.298;18.996;2023-08-06T08:55:11;10.10;;;7.40;;
77880;SDS011;67077;50.298;18.996;2023-08-06T08:57:40;7.70;;;5.70;;
77880;SDS011;67077;50.298;18.996;2023-08-06T09:00:07;5.50;;;4.00;;
77880;SDS011;67077;50.298;18.996;2023-08-06T09:02:34;6.20;;;3.40;;
77880;SDS011;67077;50.298;18.996;2023-08-06T09:05:02;6.10;;;4.70;;
77880;SDS011;67077;50.298;18.996;2023-08-06T09:07:45;4.70;;;3.60;;
77880;SDS011;67077;50.298;18.996;2023-08-06T09:10:16;7.40;;;6.00;;
77880;SDS011;67077;50.298;18.996;2023-08-06T09:12:44;8.40;;;5.90;;
77880;SDS011;67077;50.298;18.996;2023-08-06T09:15:12;7.00;;;5.70;;
77880;SDS011;67077;50.298;18.996;2023-08-06T09:17:39;9.80;;;8.10;;
77880;SDS011;67077;50.298;18.996;2023-08-06T09:20:12;11.20;;;8.50;;
77880;SDS011;67077;50.298;18.996;2023-08-06T09:22:40;11.30;;;9.50;;
77880;SDS011;67077;50.298;18.996;2023-08-06T09:25:07;17.80;;;14.10;;
77880;SDS011;67077;50.298;18.996;2023-08-06T09:27:37;13.90;;;10.80;;
77880;SDS011;67077;50.298;18.996;2023-08-06T09:30:05;13.80;;;11.20;;
77880;SDS011;67077;50.298;18.996;2023-08-06T09:32:45;18.40;;;13.80;;
77880;SDS011;67077;50.298;18.996;2023-08-06T09:35:19;12.40;;;8.50;;
77880;SDS011;67077;50.298;18.996;2023-08-06T09:37:46;15.60;;;12.10;;
77880;SDS011;67077;50.298;18.996;2023-08-06T09:40:25;13.40;;;9.20;;
77880;SDS011;67077;50.298;18.996;2023-08-06T09:42:57;7.20;;;5.60;;
77880;SDS011;67077;50.298;18.996;2023-08-06T09:45:32;9.30;;;6.40;;
77880;SDS011;67077;50.298;18.996;2023-08-06T09:48:04;5.40;;;3.90;;
77880;SDS011;67077;50.298;18.996;2023-08-06T09:50:34;7.40;;;6.30;;
77880;SDS011;67077;50.298;18.996;2023-08-06T09:53:06;13.30;;;10.80;;
77880;SDS011;67077;50.298;18.996;2023-08-06T09:55:34;8.80;;;7.10;;
77880;SDS011;67077;50.298;18.996;2023-08-06T09:58:01;9.50;;;6.90;;
77880;SDS011;67077;50.298;18.996;2023-08-06T10:00:28;6.20;;;4.80;;
77880;SDS011;67077;50.298;18.996;2023-08-06T10:03:00;9.90;;;6.40;;
77880;SDS011;67077;50.298;18.996;2023-08-06T10:05:27;8.90;;;7.30;;
77880;SDS011;67077;50.298;18.996;2023-08-06T10:07:54;13.00;;;8.60;;
77880;SDS011;67077;50.298;18.996;2023-08-06T10:10:23;9.60;;;7.50;;
77880;SDS011;67077;50.298;18.996;2023-08-06T10:12:52;10.00;;;8.10;;
77880;SDS011;67077;50.298;18.996;2023-08-06T10:15:24;8.10;;;6.80;;
77880;SDS011;67077;50.298;18.996;2023-08-06T10:17:59;8.60;;;7.20;;
77880;SDS011;67077;50.298;18.996;2023-08-06T10:20:27;8.70;;;7.20;;
77880;SDS011;67077;50.298;18.996;2023-08-06T10:23:03;7.80;;;6.00;;
77880;SDS011;67077;50.298;18.996;2023-08-06T10:25:32;4.90;;;4.30;;
77880;SDS011;67077;50.298;18.996;2023-08-06T10:28:00;2.70;;;2.00;;
77880;SDS011;67077;50.298;18.996;2023-08-06T10:30:28;4.10;;;2.50;;
77880;SDS011;67077;50.298;18.996;2023-08-06T10:32:57;3.10;;;2.80;;
77880;SDS011;67077;50.298;18.996;2023-08-06T10:38:09;3.70;;;1.50;;
77880;SDS011;67077;50.298;18.996;2023-08-06T10:40:40;1.50;;;0.80;;
77880;SDS011;67077;50.298;18.996;2023-08-06T10:43:12;1.70;;;1.10;;
77880;SDS011;67077;50.298;18.996;2023-08-06T10:46:10;2.10;;;0.90;;
77880;SDS011;67077;50.298;18.996;2023-08-06T10:48:48;3.20;;;1.20;;
77880;SDS011;67077;50.298;18.996;2023-08-06T10:51:15;1.30;;;0.80;;
77880;SDS011;67077;50.298;18.996;2023-08-06T10:53:49;3.70;;;1.10;;
77880;SDS011;67077;50.298;18.996;2023-08-06T10:56:26;0.90;;;0.70;;
77880;SDS011;67077;50.298;18.996;2023-08-06T10:59:01;1.00;;;0.80;;
77880;SDS011;67077;50.298;18.996;2023-08-06T11:01:29;1.20;;;1.00;;
77880;SDS011;67077;50.298;18.996;2023-08-06T11:04:00;2.40;;;1.00;;
77880;SDS011;67077;50.298;18.996;2023-08-06T11:06:30;1.10;;;0.80;;
77880;SDS011;67077;50.298;18.996;2023-08-06T11:08:57;1.30;;;0.80;;
77880;SDS011;67077;50.298;18.996;2023-08-06T11:11:23;1.70;;;0.90;;
77880;SDS011;67077;50.298;18.996;2023-08-06T11:13:52;1.00;;;0.90;;
77880;SDS011;67077;50.298;18.996;2023-08-06T11:16:22;1.20;;;1.00;;
77880;SDS011;67077;50.298;18.996;2023-08-06T11:18:53;2.30;;;1.20;;
77880;SDS011;67077;50.298;18.996;2023-08-06T11:21:22;1.10;;;1.00;;
77880;SDS011;67077;50.298;18.996;2023-08-06T11:23:51;1.30;;;0.90;;
77880;SDS011;67077;50.298;18.996;2023-08-06T11:26:20;1.60;;;1.20;;
77880;SDS011;67077;50.298;18.996;2023-08-06T11:28:47;2.10;;;1.40;;
77880;SDS011;67077;50.298;18.996;2023-08-06T11:31:23;1.70;;;0.90;;
77880;SDS011;67077;50.298;18.996;2023-08-06T11:33:53;5.20;;;2.40;;
77880;SDS011;67077;50.298;18.996;2023-08-06T11:38:58;2.20;;;1.40;;
77880;SDS011;67077;50.298;18.996;2023-08-06T11:41:29;1.50;;;1.20;;
77880;SDS011;67077;50.298;18.996;2023-08-06T11:43:56;2.00;;;1.10;;
77880;SDS011;67077;50.298;18.996;2023-08-06T11:46:24;1.20;;;1.00;;
77880;SDS011;67077;50.298;18.996;2023-08-06T11:48:52;1.50;;;1.20;;
77880;SDS011;67077;50.298;18.996;2023-08-06T11:51:22;2.40;;;1.40;;
77880;SDS011;67077;50.298;18.996;2023-08-06T11:53:51;2.30;;;1.00;;
77880;SDS011;67077;50.298;18.996;2023-08-06T11:56:21;1.10;;;0.90;;
77880;SDS011;67077;50.298;18.996;2023-08-06T11:58:48;1.50;;;0.50;;
77880;SDS011;67077;50.298;18.996;2023-08-06T12:01:15;0.60;;;0.50;;
77880;SDS011;67077;50.298;18.996;2023-08-06T12:03:41;0.80;;;0.50;;
77880;SDS011;67077;50.298;18.996;2023-08-06T12:06:08;0.60;;;0.60;;
77880;SDS011;67077;50.298;18.996;2023-08-06T12:08:35;1.40;;;0.90;;
77880;SDS011;67077;50.298;18.996;2023-08-06T12:11:02;1.00;;;0.60;;
77880;SDS011;67077;50.298;18.996;2023-08-06T12:13:28;2.30;;;0.80;;
77880;SDS011;67077;50.298;18.996;2023-08-06T12:15:55;0.70;;;0.60;;
77880;SDS011;67077;50.298;18.996;2023-08-06T12:18:23;1.30;;;0.70;;
77880;SDS011;67077;50.298;18.996;2023-08-06T12:20:50;0.80;;;0.70;;
77880;SDS011;67077;50.298;18.996;2023-08-06T12:23:17;2.70;;;0.90;;
77880;SDS011;67077;50.298;18.996;2023-08-06T12:25:44;1.00;;;0.70;;
77880;SDS011;67077;50.298;18.996;2023-08-06T12:28:11;0.80;;;0.80;;
77880;SDS011;67077;50.298;18.996;2023-08-06T12:30:38;2.40;;;1.00;;
77880;SDS011;67077;50.298;18.996;2023-08-06T12:33:08;3.20;;;1.00;;
77880;SDS011;67077;50.298;18.996;2023-08-06T12:35:36;0.90;;;0.80;;
77880;SDS011;67077;50.298;18.996;2023-08-06T12:38:04;0.80;;;0.70;;
77880;SDS011;67077;50.298;18.996;2023-08-06T12:40:31;1.30;;;0.80;;
77880;SDS011;67077;50.298;18.996;2023-08-06T12:42:57;3.40;;;0.70;;
77880;SDS011;67077;50.298;18.996;2023-08-06T12:45:25;0.90;;;0.80;;
77880;SDS011;67077;50.298;18.996;2023-08-06T12:47:52;0.80;;;0.70;;
77880;SDS011;67077;50.298;18.996;2023-08-06T12:50:18;1.00;;;0.80;;
77880;SDS011;67077;50.298;18.996;2023-08-06T12:52:45;1.20;;;0.80;;
77880;SDS011;67077;50.298;18.996;2023-08-06T12:55:12;1.50;;;0.70;;
77880;SDS011;67077;50.298;18.996;2023-08-06T12:57:38;0.80;;;0.70;;
77880;SDS011;67077;50.298;18.996;2023-08-06T13:00:05;0.80;;;0.70;;
77880;SDS011;67077;50.298;18.996;2023-08-06T13:02:32;1.10;;;0.80;;
77880;SDS011;67077;50.298;18.996;2023-08-06T13:04:58;2.00;;;0.70;;
77880;SDS011;67077;50.298;18.996;2023-08-06T13:07:25;1.80;;;0.90;;
77880;SDS011;67077;50.298;18.996;2023-08-06T13:09:52;1.80;;;1.00;;
77880;SDS011;67077;50.298;18.996;2023-08-06T13:12:20;1.30;;;1.10;;
77880;SDS011;67077;50.298;18.996;2023-08-06T13:14:49;0.80;;;0.80;;
77880;SDS011;67077;50.298;18.996;2023-08-06T13:17:15;1.20;;;0.90;;
77880;SDS011;67077;50.298;18.996;2023-08-06T13:19:42;1.30;;;0.90;;
77880;SDS011;67077;50.298;18.996;2023-08-06T13:22:09;3.00;;;1.80;;
77880;SDS011;67077;50.298;18.996;2023-08-06T13:24:36;2.10;;;1.10;;
77880;SDS011;67077;50.298;18.996;2023-08-06T13:27:02;1.00;;;0.70;;
77880;SDS011;67077;50.298;18.996;2023-08-06T13:29:29;1.40;;;1.00;;
77880;SDS011;67077;50.298;18.996;2023-08-06T13:31:56;1.10;;;0.70;;
77880;SDS011;67077;50.298;18.996;2023-08-06T13:34:22;1.30;;;0.80;;
77880;SDS011;67077;50.298;18.996;2023-08-06T13:36:49;1.10;;;0.60;;
77880;SDS011;67077;50.298;18.996;2023-08-06T13:39:16;1.90;;;1.30;;
77880;SDS011;67077;50.298;18.996;2023-08-06T13:41:43;1.20;;;0.90;;
77880;SDS011;67077;50.298;18.996;2023-08-06T13:44:10;2.40;;;1.30;;
77880;SDS011;67077;50.298;18.996;2023-08-06T13:46:37;1.80;;;0.70;;
77880;SDS011;67077;50.298;18.996;2023-08-06T13:49:03;0.90;;;0.70;;
77880;SDS011;67077;50.298;18.996;2023-08-06T13:51:30;2.30;;;1.00;;
77880;SDS011;67077;50.298;18.996;2023-08-06T13:53:56;1.40;;;0.80;;
77880;SDS011;67077;50.298;18.996;2023-08-06T13:56:24;1.30;;;0.70;;
77880;SDS011;67077;50.298;18.996;2023-08-06T13:58:50;1.80;;;1.20;;
77880;SDS011;67077;50.298;18.996;2023-08-06T14:01:17;1.30;;;0.80;;
77880;SDS011;67077;50.298;18.996;2023-08-06T14:03:47;1.80;;;1.00;;
77880;SDS011;67077;50.298;18.996;2023-08-06T14:06:14;2.20;;;1.70;;
77880;SDS011;67077;50.298;18.996;2023-08-06T14:08:41;1.80;;;1.30;;
77880;SDS011;67077;50.298;18.996;2023-08-06T14:11:07;1.80;;;1.10;;
77880;SDS011;67077;50.298;18.996;2023-08-06T14:13:34;1.10;;;0.80;;
77880;SDS011;67077;50.298;18.996;2023-08-06T14:16:04;2.60;;;0.90;;
77880;SDS011;67077;50.298;18.996;2023-08-06T14:18:31;1.10;;;0.80;;
77880;SDS011;67077;50.298;18.996;2023-08-06T14:20:57;0.60;;;0.60;;
77880;SDS011;67077;50.298;18.996;2023-08-06T14:23:24;0.60;;;0.60;;
77880;SDS011;67077;50.298;18.996;2023-08-06T14:25:50;0.70;;;0.50;;
77880;SDS011;67077;50.298;18.996;2023-08-06T14:28:17;0.90;;;0.50;;
77880;SDS011;67077;50.298;18.996;2023-08-06T14:30:44;1.10;;;0.60;;
77880;SDS011;67077;50.298;18.996;2023-08-06T14:33:10;0.70;;;0.70;;
77880;SDS011;67077;50.298;18.996;2023-08-06T14:35:37;1.30;;;0.70;;
77880;SDS011;67077;50.298;18.996;2023-08-06T14:38:03;1.70;;;0.60;;
77880;SDS011;67077;50.298;18.996;2023-08-06T14:40:30;0.70;;;0.60;;